Time;durP1;ratioP1;P1;durP2;ratioP2;P2;SDS_P1;SDS_P2;PMS_P1;PMS_P2;Temp;Humidity;BMP_temperature;BMP_pressure;BME280_temperature;BME280_humidity;BME280_pressure;Samples;Min_cycle;Max_cycle;Signal;HPM_P1;HPM_P2
2022/04/13 00:00:30;;;;;;;1.90;0.73;;;19.50;51.80;;;;;;4542115;31;20086;-68
2022/04/13 00:02:56;;;;;;;1.23;0.70;;;19.50;51.80;;;;;;4527461;31;20095;-68
2022/04/13 00:05:22;;;;;;;1.23;0.90;;;19.50;51.80;;;;;;4527462;31;20594;-68
2022/04/13 00:07:48;;;;;;;1.35;0.82;;;19.50;51.80;;;;;;4542163;31;20072;-68
2022/04/13 00:10:15;;;;;;;0.80;0.60;;;19.50;51.80;;;;;;4541948;31;20099;-69
2022/04/13 00:12:41;;;;;;;1.30;0.80;;;19.50;51.80;;;;;;4542155;31;20201;-68
2022/04/13 00:15:08;;;;;;;2.97;1.23;;;19.50;51.80;;;;;;4542041;31;20072;-68
2022/04/13 00:17:36;;;;;;;1.00;0.68;;;19.50;51.80;;;;;;4542058;31;20132;-68
2022/04/13 00:20:06;;;;;;;0.98;0.60;;;19.50;51.80;;;;;;4542284;31;20068;-68
2022/04/13 00:22:32;;;;;;;1.25;0.80;;;19.50;51.80;;;;;;4542399;31;20101;-68
2022/04/13 00:24:58;;;;;;;1.90;0.70;;;19.40;51.70;;;;;;4542117;31;20080;-68
2022/04/13 00:27:24;;;;;;;1.60;0.80;;;19.50;51.80;;;;;;4542074;31;20127;-68
2022/04/13 00:29:50;;;;;;;0.85;0.50;;;19.40;51.70;;;;;;4527194;31;20211;-68
2022/04/13 00:32:15;;;;;;;1.60;0.80;;;19.40;51.70;;;;;;4527401;31;20080;-68
2022/04/13 00:34:41;;;;;;;1.58;0.90;;;19.40;51.60;;;;;;4541740;31;20213;-68
2022/04/13 00:37:07;;;;;;;1.15;0.88;;;19.40;51.60;;;;;;4541725;31;20064;-68
2022/04/13 00:39:33;;;;;;;1.33;0.70;;;19.40;51.70;;;;;;4541532;31;20118;-68
2022/04/13 00:42:03;;;;;;;1.95;0.85;;;19.40;51.60;;;;;;4540921;31;20118;-68
2022/04/13 00:44:29;;;;;;;1.02;0.70;;;19.40;51.60;;;;;;4527513;31;20060;-68
2022/04/13 00:46:56;;;;;;;1.20;0.63;;;19.40;51.70;;;;;;4541343;31;20528;-68
2022/04/13 00:49:24;;;;;;;1.45;0.80;;;19.40;51.60;;;;;;4513798;31;20083;-68
2022/04/13 00:51:50;;;;;;;1.15;0.73;;;19.40;51.60;;;;;;4527013;31;20094;-68
2022/04/13 00:54:18;;;;;;;2.42;0.70;;;19.40;51.60;;;;;;4541354;31;20080;-68
2022/04/13 00:56:47;;;;;;;1.10;0.70;;;19.40;51.60;;;;;;4541398;31;20104;-68
2022/04/13 00:59:14;;;;;;;0.90;0.70;;;19.40;51.60;;;;;;4541522;31;20440;-68
2022/04/13 01:01:45;;;;;;;1.17;0.77;;;19.40;51.60;;;;;;4540717;31;20090;-68
2022/04/13 01:04:12;;;;;;;1.00;0.70;;;19.40;51.60;;;;;;4527500;31;20483;-68
2022/04/13 01:06:39;;;;;;;1.42;0.70;;;19.40;51.60;;;;;;4541344;31;20115;-68
2022/04/13 01:09:05;;;;;;;1.35;0.73;;;19.40;51.60;;;;;;4540784;31;20171;-69
2022/04/13 01:11:32;;;;;;;1.27;0.55;;;19.40;51.60;;;;;;4540909;31;20095;-68
2022/04/13 01:13:58;;;;;;;1.30;0.77;;;19.40;51.60;;;;;;4541117;31;20072;-68
2022/04/13 01:16:25;;;;;;;1.15;0.60;;;19.40;51.60;;;;;;4526953;31;20119;-68
2022/04/13 01:18:52;;;;;;;1.27;0.70;;;19.40;51.60;;;;;;4541158;31;20084;-68
2022/04/13 01:21:20;;;;;;;2.28;0.90;;;19.40;51.60;;;;;;4541061;31;20234;-68
2022/04/13 01:23:46;;;;;;;1.45;0.70;;;19.30;51.50;;;;;;4541249;31;20071;-68
2022/04/13 01:26:13;;;;;;;1.75;0.73;;;19.30;51.50;;;;;;4541198;31;20459;-68
2022/04/13 01:28:39;;;;;;;1.10;0.70;;;19.30;51.50;;;;;;4541249;31;20199;-66
2022/04/13 01:31:05;;;;;;;1.20;0.70;;;19.30;51.50;;;;;;4541221;31;20111;-68
2022/04/13 01:33:31;;;;;;;1.00;0.77;;;19.30;51.50;;;;;;4540724;31;20424;-68
2022/04/13 01:36:01;;;;;;;1.10;0.63;;;19.30;51.50;;;;;;4540966;31;20102;-68
2022/04/13 01:38:28;;;;;;;0.82;0.75;;;19.30;51.50;;;;;;4525912;31;20150;-68
2022/04/13 01:40:55;;;;;;;1.90;0.95;;;19.30;51.50;;;;;;4540256;31;20112;-68
2022/04/13 01:43:21;;;;;;;1.27;0.80;;;19.30;51.50;;;;;;4525957;31;20094;-68
2022/04/13 01:45:47;;;;;;;1.25;0.80;;;19.30;51.50;;;;;;4540901;31;20068;-68
2022/04/13 01:48:13;;;;;;;2.00;0.75;;;19.30;51.50;;;;;;4540664;31;20374;-68
2022/04/13 01:50:39;;;;;;;1.15;0.60;;;19.30;51.50;;;;;;4540670;31;20099;-68
2022/04/13 01:53:05;;;;;;;1.30;0.60;;;19.30;51.50;;;;;;4540770;31;20080;-68
2022/04/13 01:55:31;;;;;;;1.38;0.70;;;19.30;51.50;;;;;;4526066;31;20072;-68
2022/04/13 01:57:57;;;;;;;1.25;0.80;;;19.30;51.50;;;;;;4540469;31;20528;-68
2022/04/13 02:00:22;;;;;;;0.98;0.52;;;19.30;51.50;;;;;;4540409;31;20164;-68
2022/04/13 02:02:48;;;;;;;1.58;0.70;;;19.30;51.40;;;;;;4540033;31;20390;-68
2022/04/13 02:05:15;;;;;;;0.82;0.77;;;19.30;51.50;;;;;;4540334;31;20157;-68
2022/04/13 02:07:41;;;;;;;1.42;0.70;;;19.20;51.40;;;;;;4526129;31;20502;-69
2022/04/13 02:10:09;;;;;;;1.52;0.70;;;19.20;51.50;;;;;;4522448;31;20124;-68
2022/04/13 02:12:37;;;;;;;0.60;0.45;;;19.20;51.40;;;;;;4522760;31;20210;-68
2022/04/13 02:15:06;;;;;;;1.30;0.70;;;19.30;51.50;;;;;;4526675;31;20529;-68
2022/04/13 02:17:32;;;;;;;2.03;1.08;;;19.20;51.40;;;;;;4522863;31;20575;-68
2022/04/13 02:19:58;;;;;;;1.23;0.93;;;19.20;51.40;;;;;;4522623;31;20088;-68
2022/04/13 02:22:23;;;;;;;1.05;0.70;;;19.20;51.40;;;;;;4522608;31;20108;-68
2022/04/13 02:24:52;;;;;;;0.80;0.60;;;19.20;51.40;;;;;;4522610;31;20192;-68
2022/04/13 02:27:18;;;;;;;1.20;0.60;;;19.20;51.40;;;;;;4523579;31;20181;-68
2022/04/13 02:29:46;;;;;;;0.88;0.68;;;19.20;51.40;;;;;;4524390;31;20429;-68
2022/04/13 02:32:12;;;;;;;1.15;0.70;;;19.20;51.40;;;;;;4524120;31;20056;-68
2022/04/13 02:34:38;;;;;;;1.10;0.80;;;19.20;51.40;;;;;;4523777;31;20393;-68
2022/04/13 02:37:03;;;;;;;0.98;0.57;;;19.20;51.40;;;;;;4523890;31;20276;-68
2022/04/13 02:39:29;;;;;;;0.90;0.90;;;19.20;51.40;;;;;;4509280;31;20084;-68
2022/04/13 02:41:55;;;;;;;0.63;0.52;;;19.20;51.40;;;;;;4523447;31;20068;-68
2022/04/13 02:44:21;;;;;;;0.90;0.65;;;19.10;51.30;;;;;;4523713;31;20112;-68
2022/04/13 02:46:47;;;;;;;0.70;0.60;;;19.20;51.40;;;;;;4509491;31;20060;-68
2022/04/13 02:49:12;;;;;;;1.33;0.70;;;19.20;52.40;;;;;;4509634;31;20064;-68
2022/04/13 02:51:38;;;;;;;0.95;0.60;;;19.10;51.30;;;;;;4523708;31;20079;-68
2022/04/13 02:54:04;;;;;;;1.23;0.60;;;19.20;51.40;;;;;;4523196;31;20274;-68
2022/04/13 02:56:30;;;;;;;0.70;0.68;;;19.20;51.40;;;;;;4524568;31;20103;-69
2022/04/13 02:58:56;;;;;;;0.82;0.63;;;19.10;51.30;;;;;;4522376;31;20292;-68
2022/04/13 03:01:22;;;;;;;1.13;0.50;;;19.10;51.40;;;;;;4508294;31;20401;-68
2022/04/13 03:03:48;;;;;;;0.95;0.70;;;19.10;51.30;;;;;;4522280;31;20390;-69
2022/04/13 03:06:14;;;;;;;1.17;0.60;;;19.10;51.30;;;;;;4521756;31;20457;-68
2022/04/13 03:08:40;;;;;;;1.30;0.60;;;19.20;51.40;;;;;;4522692;31;20112;-68
2022/04/13 03:11:07;;;;;;;2.25;0.60;;;19.10;51.30;;;;;;4522425;31;20091;-68
2022/04/13 03:13:34;;;;;;;1.00;0.70;;;19.10;51.40;;;;;;4522782;31;20262;-68
2022/04/13 03:16:00;;;;;;;0.82;0.57;;;19.20;51.40;;;;;;4522630;31;20678;-71
2022/04/13 03:18:26;;;;;;;0.82;0.57;;;19.10;51.40;;;;;;4508299;31;20068;-68
2022/04/13 03:20:51;;;;;;;0.80;0.57;;;19.10;51.40;;;;;;4522692;31;20132;-68
2022/04/13 03:23:17;;;;;;;1.90;0.70;;;19.10;51.40;;;;;;4522658;31;20057;-68
2022/04/13 03:25:43;;;;;;;1.02;0.70;;;19.10;51.40;;;;;;4522630;31;20108;-68
2022/04/13 03:28:09;;;;;;;0.80;0.50;;;19.10;51.40;;;;;;4522641;31;20413;-68
2022/04/13 03:30:35;;;;;;;1.05;0.60;;;19.10;51.40;;;;;;4522613;31;20068;-68
2022/04/13 03:33:00;;;;;;;1.02;0.50;;;19.10;51.50;;;;;;4522812;31;20617;-68
2022/04/13 03:40:40;;;;;;;0.55;0.50;;;19.10;51.40;;;;;;4705391;26;20288;-68
2022/04/13 03:43:06;;;;;;;1.13;0.80;;;19.10;51.40;;;;;;4443616;32;20598;-68
2022/04/13 03:45:31;;;;;;;0.90;0.70;;;19.10;51.40;;;;;;4443855;32;20220;-68
2022/04/13 03:47:57;;;;;;;1.38;0.55;;;19.10;51.50;;;;;;4442252;32;20097;-68
2022/04/13 03:50:23;;;;;;;0.70;0.57;;;19.10;51.50;;;;;;4444699;32;20082;-68
2022/04/13 03:52:49;;;;;;;1.02;0.60;;;19.10;51.50;;;;;;4430186;32;20432;-68
2022/04/13 03:55:16;;;;;;;0.80;0.60;;;19.10;51.40;;;;;;4444170;32;20471;-68
2022/04/13 03:57:41;;;;;;;0.80;0.50;;;19.10;51.40;;;;;;4444211;32;20396;-68
2022/04/13 04:00:09;;;;;;;0.90;0.50;;;19.10;51.40;;;;;;4444535;32;20152;-68
2022/04/13 04:02:39;;;;;;;0.88;0.80;;;19.00;51.40;;;;;;4443776;32;20179;-68
2022/04/13 04:05:05;;;;;;;1.17;0.73;;;19.10;51.40;;;;;;4444520;32;20086;-68
2022/04/13 04:07:31;;;;;;;1.08;0.70;;;19.00;51.40;;;;;;4444312;32;20112;-68
2022/04/13 04:09:57;;;;;;;0.88;0.52;;;19.00;51.40;;;;;;4444201;32;20503;-68
2022/04/13 04:12:24;;;;;;;1.30;0.70;;;19.00;51.40;;;;;;4444289;32;20241;-68
2022/04/13 04:14:50;;;;;;;0.93;0.68;;;19.00;51.40;;;;;;4444269;32;20125;-68
2022/04/13 04:17:16;;;;;;;1.15;0.73;;;19.00;51.40;;;;;;4445509;32;20084;-68
2022/04/13 04:19:42;;;;;;;0.68;0.60;;;19.00;51.40;;;;;;4447083;32;20442;-68
2022/04/13 04:22:07;;;;;;;1.10;0.70;;;19.00;51.40;;;;;;4446924;32;20495;-68
2022/04/13 04:24:33;;;;;;;0.80;0.60;;;19.00;51.40;;;;;;4447017;32;20426;-68
2022/04/13 04:26:59;;;;;;;0.68;0.43;;;19.00;51.40;;;;;;4446970;32;20074;-68
2022/04/13 04:29:25;;;;;;;0.85;0.50;;;19.00;51.40;;;;;;4446877;32;20070;-68
2022/04/13 04:31:51;;;;;;;0.50;0.50;;;19.00;51.40;;;;;;4432733;32;20124;-68
2022/04/13 04:34:19;;;;;;;1.25;0.50;;;19.00;51.40;;;;;;4446868;32;20164;-68
2022/04/13 04:36:45;;;;;;;1.00;0.80;;;19.00;51.40;;;;;;4446595;32;20186;-67
2022/04/13 04:39:11;;;;;;;0.80;0.70;;;19.00;51.40;;;;;;4432689;32;20187;-68
2022/04/13 04:41:40;;;;;;;0.88;0.60;;;19.00;51.40;;;;;;4446501;32;20058;-68
2022/04/13 04:44:08;;;;;;;0.88;0.70;;;19.00;51.40;;;;;;4446533;32;20167;-68
2022/04/13 04:46:34;;;;;;;0.88;0.60;;;19.00;51.40;;;;;;4446641;32;20102;-68
2022/04/13 04:49:01;;;;;;;0.98;0.60;;;18.90;51.30;;;;;;4432516;32;20122;-67
2022/04/13 04:51:27;;;;;;;0.80;0.70;;;19.00;51.40;;;;;;4446648;32;20409;-67
2022/04/13 04:53:53;;;;;;;1.10;0.77;;;18.90;51.30;;;;;;4446348;32;20074;-67
2022/04/13 04:56:18;;;;;;;1.50;0.80;;;18.90;51.30;;;;;;4432616;32;20077;-68
2022/04/13 04:58:44;;;;;;;0.70;0.50;;;18.90;51.40;;;;;;4446351;32;20396;-68
2022/04/13 05:01:10;;;;;;;0.60;0.52;;;18.90;51.30;;;;;;4446311;32;20110;-68
2022/04/13 05:03:36;;;;;;;0.93;0.60;;;18.90;51.30;;;;;;4446588;32;20522;-68
2022/04/13 05:06:02;;;;;;;1.00;0.52;;;19.00;51.40;;;;;;4432163;32;20168;-67
2022/04/13 05:08:28;;;;;;;1.13;0.80;;;18.90;51.30;;;;;;4432544;32;20074;-68
2022/04/13 05:10:53;;;;;;;1.30;0.70;;;18.90;51.30;;;;;;4446418;32;20086;-68
2022/04/13 05:13:20;;;;;;;1.35;0.75;;;18.90;51.30;;;;;;4446295;32;20174;-68
2022/04/13 05:15:47;;;;;;;1.23;0.60;;;18.90;51.30;;;;;;4445959;32;20118;-68
2022/04/13 05:18:13;;;;;;;1.90;0.90;;;18.90;51.30;;;;;;4432421;32;20086;-68
2022/04/13 05:20:40;;;;;;;2.63;1.23;;;18.90;51.30;;;;;;4446314;32;20430;-68
2022/04/13 05:23:06;;;;;;;3.90;1.90;;;18.90;51.30;;;;;;4445921;32;20082;-68
2022/04/13 05:25:32;;;;;;;4.03;2.63;;;18.90;51.20;;;;;;4446110;32;20092;-68
2022/04/13 05:27:59;;;;;;;3.92;1.83;;;18.90;51.20;;;;;;4445547;32;20587;-68
2022/04/13 05:30:25;;;;;;;3.15;1.77;;;18.80;51.50;;;;;;4432249;32;20519;-68
2022/04/13 05:32:56;;;;;;;2.70;1.75;;;18.80;51.70;;;;;;4446045;32;20114;-69
2022/04/13 05:35:23;;;;;;;6.05;2.08;;;18.80;51.90;;;;;;4432050;32;20176;-68
2022/04/13 05:37:49;;;;;;;4.45;2.00;;;18.80;52.10;;;;;;4445771;32;20074;-68
2022/04/13 05:40:15;;;;;;;1.98;1.38;;;18.80;52.10;;;;;;4432092;32;20518;-68
2022/04/13 05:42:41;;;;;;;2.20;1.60;;;18.80;52.20;;;;;;4445705;32;20137;-68
2022/04/13 05:45:09;;;;;;;4.18;1.60;;;18.80;52.30;;;;;;4445934;32;20243;-68
2022/04/13 05:47:35;;;;;;;1.23;1.13;;;18.80;52.40;;;;;;4431901;32;20255;-68
2022/04/13 05:50:02;;;;;;;5.35;1.67;;;18.80;52.30;;;;;;4445840;32;20216;-68
2022/04/13 05:52:28;;;;;;;2.25;1.50;;;18.80;52.40;;;;;;4445529;32;20070;-68
2022/04/13 05:54:54;;;;;;;3.15;1.30;;;18.80;52.50;;;;;;4445552;32;20167;-68
2022/04/13 05:57:19;;;;;;;2.30;1.52;;;18.80;52.50;;;;;;4445643;32;20518;-69
2022/04/13 05:59:45;;;;;;;2.08;1.17;;;18.80;52.60;;;;;;4431752;32;20470;-68
2022/04/13 06:02:11;;;;;;;5.13;1.50;;;18.80;52.60;;;;;;4445388;32;20113;-68
2022/04/13 06:04:37;;;;;;;2.95;1.30;;;18.80;52.60;;;;;;4445545;32;20142;-68
2022/04/13 06:07:03;;;;;;;2.97;1.08;;;18.80;52.70;;;;;;4431061;32;20421;-68
2022/04/13 06:09:29;;;;;;;2.50;1.20;;;18.90;52.80;;;;;;4445321;32;20085;-69
2022/04/13 06:11:55;;;;;;;3.35;1.48;;;18.80;52.80;;;;;;4445440;32;20094;-68
2022/04/13 06:14:21;;;;;;;3.05;1.40;;;18.80;52.90;;;;;;4445244;32;20132;-68
2022/04/13 06:16:48;;;;;;;2.33;1.20;;;18.80;53.00;;;;;;4431236;32;20086;-68
2022/04/13 06:19:14;;;;;;;3.30;1.10;;;18.80;53.10;;;;;;4445109;32;20070;-68
2022/04/13 06:21:39;;;;;;;2.08;1.10;;;18.80;53.10;;;;;;4445314;32;20074;-68
2022/04/13 06:24:06;;;;;;;3.67;1.30;;;18.90;53.20;;;;;;4445264;32;20152;-68
2022/04/13 06:26:31;;;;;;;3.95;1.08;;;18.90;53.30;;;;;;4431005;32;20211;-68
2022/04/13 06:28:57;;;;;;;4.25;1.60;;;18.80;53.20;;;;;;4444760;32;20078;-67
2022/04/13 06:31:23;;;;;;;5.03;1.40;;;18.90;53.40;;;;;;4444896;32;20062;-67
2022/04/13 06:33:49;;;;;;;3.30;1.50;;;18.80;53.40;;;;;;4445152;32;20108;-68
2022/04/13 06:36:15;;;;;;;2.90;1.58;;;18.80;53.40;;;;;;4444329;32;20543;-68
2022/04/13 06:38:41;;;;;;;2.88;1.70;;;18.90;53.60;;;;;;4430126;32;20121;-67
2022/04/13 06:41:08;;;;;;;5.88;1.80;;;18.80;53.60;;;;;;4443780;32;20160;-67
2022/04/13 06:43:34;;;;;;;3.50;1.77;;;18.90;53.80;;;;;;4444597;32;20486;-69
2022/04/13 06:46:00;;;;;;;3.97;2.00;;;18.90;53.80;;;;;;4444253;32;20062;-67
2022/04/13 06:48:25;;;;;;;5.90;2.08;;;18.90;53.80;;;;;;4430120;32;20416;-67
2022/04/13 06:50:51;;;;;;;3.45;1.80;;;18.90;53.90;;;;;;4444592;32;20427;-67
2022/04/13 06:53:18;;;;;;;6.03;1.60;;;18.90;53.80;;;;;;4444897;32;20066;-67
2022/04/13 06:55:48;;;;;;;5.07;2.03;;;18.90;53.90;;;;;;4444682;32;20500;-67
2022/04/13 06:58:15;;;;;;;5.57;1.67;;;18.90;53.90;;;;;;4444736;32;20133;-67
2022/04/13 07:00:41;;;;;;;7.25;1.90;;;18.90;54.00;;;;;;4431121;32;20207;-67
2022/04/13 07:03:06;;;;;;;6.80;1.85;;;18.90;53.90;;;;;;4444890;32;20086;-67
2022/04/13 07:05:33;;;;;;;6.38;1.77;;;18.90;53.90;;;;;;4444863;32;20219;-67
2022/04/13 07:08:00;;;;;;;6.35;1.70;;;18.90;53.90;;;;;;4444573;32;20136;-66
2022/04/13 07:10:27;;;;;;;3.83;1.63;;;18.90;53.90;;;;;;4444806;32;20137;-67
2022/04/13 07:12:53;;;;;;;3.45;1.63;;;18.90;53.90;;;;;;4444609;32;20231;-66
2022/04/13 07:15:20;;;;;;;4.05;1.52;;;18.90;53.90;;;;;;4444442;32;20504;-67
2022/04/13 07:17:47;;;;;;;8.48;2.28;;;18.90;53.90;;;;;;4444750;32;20499;-67
2022/04/13 07:20:13;;;;;;;3.58;1.50;;;18.90;53.80;;;;;;4430740;32;20179;-66
2022/04/13 07:22:46;;;;;;;5.90;2.05;;;18.90;53.80;;;;;;4444461;32;20078;-67
2022/04/13 07:25:13;;;;;;;6.95;1.70;;;18.90;53.80;;;;;;4430654;32;20073;-66
2022/04/13 07:27:39;;;;;;;4.85;1.95;;;18.90;53.80;;;;;;4444400;32;20089;-67
2022/04/13 07:30:06;;;;;;;3.85;1.60;;;18.90;53.80;;;;;;4444468;32;20416;-66
2022/04/13 07:32:32;;;;;;;3.58;2.00;;;18.90;53.90;;;;;;4444583;32;20114;-67
2022/04/13 07:35:02;;;;;;;5.45;2.10;;;18.90;53.90;;;;;;4444527;32;20102;-67
2022/04/13 07:37:29;;;;;;;4.43;2.00;;;18.90;53.80;;;;;;4444535;32;20093;-66
2022/04/13 07:39:55;;;;;;;3.28;1.88;;;18.90;53.90;;;;;;4444749;32;20074;-67
2022/04/13 07:42:28;;;;;;;8.95;2.38;;;18.90;53.90;;;;;;4430659;32;20459;-67
2022/04/13 07:44:55;;;;;;;3.60;2.10;;;18.90;53.80;;;;;;4444612;32;20098;-67
2022/04/13 07:47:22;;;;;;;4.38;2.08;;;18.90;53.80;;;;;;4444571;32;20132;-67
2022/04/13 07:49:49;;;;;;;4.47;1.95;;;18.90;53.90;;;;;;4443355;32;20074;-66
2022/04/13 07:52:16;;;;;;;3.50;2.10;;;18.90;53.90;;;;;;4447201;32;20085;-67
2022/04/13 07:54:44;;;;;;;5.18;2.40;;;18.90;53.90;;;;;;4447507;32;20255;-67
2022/04/13 07:57:10;;;;;;;3.92;1.85;;;18.90;53.80;;;;;;4447157;32;20403;-66
2022/04/13 07:59:36;;;;;;;3.08;1.90;;;18.90;53.80;;;;;;4447156;32;20066;-66
2022/04/13 08:02:04;;;;;;;4.57;1.60;;;18.90;53.80;;;;;;4447295;32;20102;-67
2022/04/13 08:04:30;;;;;;;5.88;2.15;;;18.90;53.80;;;;;;4447351;32;20078;-67
2022/04/13 08:06:56;;;;;;;4.05;2.00;;;18.90;53.80;;;;;;4446991;32;20098;-66
2022/04/13 08:09:22;;;;;;;3.72;2.00;;;18.90;53.90;;;;;;4447412;32;20517;-66
2022/04/13 08:11:52;;;;;;;3.13;1.85;;;18.90;53.90;;;;;;4447256;32;20070;-67
2022/04/13 08:14:19;;;;;;;3.88;1.98;;;18.90;53.80;;;;;;4447266;32;20412;-67
2022/04/13 08:16:45;;;;;;;3.17;1.80;;;18.90;53.90;;;;;;4447077;32;20415;-67
2022/04/13 08:19:12;;;;;;;4.85;2.28;;;18.90;53.90;;;;;;4447047;32;20470;-66
2022/04/13 08:21:38;;;;;;;6.25;2.08;;;18.90;53.90;;;;;;4446897;32;20098;-67
2022/04/13 08:24:05;;;;;;;5.22;2.05;;;18.90;53.90;;;;;;4420333;32;20071;-65
2022/04/13 08:26:31;;;;;;;5.85;2.15;;;18.90;53.90;;;;;;4432724;32;20074;-79
2022/04/13 08:28:57;;;;;;;6.68;2.58;;;18.90;53.90;;;;;;4446753;32;20105;-77
2022/04/13 08:31:23;;;;;;;7.30;3.50;;;18.90;54.00;;;;;;4446763;32;20074;-76
2022/04/13 08:33:49;;;;;;;10.13;4.18;;;18.90;55.30;;;;;;4432730;32;20136;-80
2022/04/13 08:36:15;;;;;;;17.58;5.20;;;18.90;54.60;;;;;;4446549;32;20817;-80
2022/04/13 08:38:41;;;;;;;13.63;4.45;;;18.90;54.90;;;;;;4446882;32;20578;-80
2022/04/13 08:41:25;;;;;;;9.55;4.28;;;18.90;54.90;;;;;;4432664;32;20583;-80
2022/04/13 08:43:56;;;;;;;13.02;5.90;;;18.90;55.10;;;;;;4446414;32;20066;-80
2022/04/13 08:46:25;;;;;;;10.48;5.03;;;18.90;55.20;;;;;;4446780;32;20093;-68
2022/04/13 08:48:55;;;;;;;11.43;5.93;;;19.00;55.50;;;;;;4446361;32;20124;-68
2022/04/13 08:51:22;;;;;;;11.82;5.63;;;19.00;55.90;;;;;;4433138;32;20074;-68
2022/04/13 08:53:54;;;;;;;11.13;5.35;;;19.00;55.90;;;;;;4446540;32;20395;-68
2022/04/13 08:56:20;;;;;;;14.13;6.45;;;19.00;56.10;;;;;;4446639;32;20078;-68
2022/04/13 08:59:04;;;;;;;12.98;5.45;;;19.00;56.40;;;;;;4446773;32;20508;-68
2022/04/13 09:01:40;;;;;;;12.30;6.32;;;19.10;56.70;;;;;;4432603;32;20062;-69
2022/04/13 09:04:10;;;;;;;14.43;6.80;;;19.10;57.10;;;;;;4433019;32;20074;-68
2022/04/13 09:06:39;;;;;;;16.45;6.47;;;19.10;57.00;;;;;;4445787;32;20117;-68
2022/04/13 09:09:28;;;;;;;11.82;7.30;;;19.10;57.30;;;;;;4446303;32;20271;-68
2022/04/13 09:11:57;;;;;;;13.95;7.22;;;19.10;57.60;;;;;;4445688;32;20167;-67
2022/04/13 09:14:24;;;;;;;10.63;5.70;;;19.10;57.60;;;;;;4445928;32;20101;-68
2022/04/13 09:16:51;;;;;;;10.63;4.88;;;19.10;57.30;;;;;;4445967;32;20106;-68
2022/04/13 09:19:18;;;;;;;17.65;5.85;;;19.10;57.20;;;;;;4445876;32;20220;-74
2022/04/13 09:21:44;;;;;;;9.18;4.82;;;19.10;57.00;;;;;;4446283;32;20054;-66
2022/04/13 09:24:11;;;;;;;12.93;5.25;;;19.10;57.10;;;;;;4446287;32;20175;-67
2022/04/13 09:26:38;;;;;;;15.20;4.75;;;19.10;57.20;;;;;;4445924;32;20224;-65
2022/04/13 09:29:04;;;;;;;12.82;4.82;;;19.10;57.20;;;;;;4445442;32;20070;-66
2022/04/13 09:31:31;;;;;;;13.02;4.90;;;19.20;57.20;;;;;;4445026;32;20402;-67
2022/04/13 09:33:56;;;;;;;13.48;4.70;;;19.20;57.30;;;;;;4444642;32;20096;-67
2022/04/13 09:36:22;;;;;;;13.70;4.88;;;19.30;57.40;;;;;;4430632;32;20074;-67
2022/04/13 09:38:52;;;;;;;11.98;4.53;;;19.30;57.40;;;;;;4444577;32;20564;-65
2022/04/13 09:41:18;;;;;;;11.65;4.00;;;19.30;57.40;;;;;;4430807;32;20213;-67
2022/04/13 09:43:54;;;;;;;9.93;4.22;;;19.40;57.40;;;;;;4444657;32;20369;-67
2022/04/13 09:46:30;;;;;;;10.88;3.90;;;19.40;57.50;;;;;;4444704;32;20074;-67
2022/04/13 09:49:08;;;;;;;11.10;3.90;;;19.40;57.50;;;;;;4444470;32;20132;-67
2022/04/13 09:51:38;;;;;;;11.82;4.18;;;19.50;58.40;;;;;;4444507;32;20874;-68
2022/04/13 09:54:07;;;;;;;9.93;3.75;;;19.60;57.30;;;;;;4444614;32;20132;-68
2022/04/13 09:56:35;;;;;;;7.97;3.45;;;19.60;57.10;;;;;;4444911;32;20211;-68
2022/04/13 09:59:01;;;;;;;10.98;4.00;;;19.70;57.00;;;;;;4445532;32;20070;-68
2022/04/13 10:01:28;;;;;;;10.70;3.63;;;19.70;56.90;;;;;;4445728;32;20423;-71
2022/04/13 10:03:57;;;;;;;9.55;3.88;;;19.70;56.90;;;;;;4445489;32;20078;-69
2022/04/13 10:06:31;;;;;;;9.35;3.45;;;19.80;56.80;;;;;;4444922;32;20097;-68
2022/04/13 10:09:14;;;;;;;10.68;4.43;;;19.80;56.80;;;;;;4445594;32;20066;-67
2022/04/13 10:12:01;;;;;;;10.55;4.15;;;19.90;57.00;;;;;;4431660;32;20088;-68
2022/04/13 10:14:27;;;;;;;10.18;3.60;;;19.90;56.90;;;;;;4445086;32;20086;-67
2022/04/13 10:16:56;;;;;;;11.00;4.13;;;19.90;56.60;;;;;;4445415;32;20093;-68
2022/04/13 10:19:23;;;;;;;18.08;4.53;;;20.00;56.50;;;;;;4445306;32;20094;-68
2022/04/13 10:21:51;;;;;;;11.43;4.03;;;20.00;56.50;;;;;;4445225;32;20495;-68
2022/04/13 10:24:33;;;;;;;10.98;3.95;;;20.00;56.40;;;;;;4445435;32;20090;-68
2022/04/13 10:27:02;;;;;;;17.17;6.20;;;20.10;56.40;;;;;;4445122;32;20451;-68
2022/04/13 10:29:28;;;;;;;19.23;5.85;;;20.10;56.20;;;;;;4445357;32;20207;-67
2022/04/13 10:32:09;;;;;;;12.90;5.40;;;20.20;56.40;;;;;;4445000;32;20074;-68
2022/04/13 10:34:43;;;;;;;11.32;5.00;;;20.20;56.30;;;;;;4430791;32;20582;-68
2022/04/13 10:37:11;;;;;;;12.63;4.95;;;20.20;56.20;;;;;;4444966;32;20074;-67
2022/04/13 10:39:37;;;;;;;16.20;5.20;;;20.30;56.00;;;;;;4417450;32;20482;-68
2022/04/13 10:42:03;;;;;;;13.48;4.25;;;20.30;56.00;;;;;;4444608;32;20097;-68
2022/04/13 10:44:41;;;;;;;10.93;4.20;;;20.30;56.00;;;;;;4445008;32;20228;-68
2022/04/13 10:47:10;;;;;;;12.07;4.30;;;20.40;56.00;;;;;;4445083;32;20149;-78
2022/04/13 10:49:59;;;;;;;11.32;3.97;;;20.40;55.90;;;;;;4444782;32;20069;-78
2022/04/13 10:52:40;;;;;;;8.85;3.15;;;20.40;55.90;;;;;;4444624;32;20491;-68
2022/04/13 10:55:10;;;;;;;8.35;3.20;;;20.30;55.70;;;;;;4444298;32;20544;-68
2022/04/13 10:58:21;;;;;;;9.68;4.00;;;20.40;55.80;;;;;;4430257;32;20123;-69
2022/04/13 11:00:51;;;;;;;11.45;3.55;;;20.40;56.40;;;;;;4417204;32;20074;-69
2022/04/13 11:03:17;;;;;;;11.57;3.38;;;20.40;56.40;;;;;;4443804;32;20138;-70
2022/04/13 11:05:43;;;;;;;8.35;3.63;;;20.40;56.50;;;;;;4443651;32;20208;-69
2022/04/13 11:08:32;;;;;;;7.43;2.97;;;20.40;56.50;;;;;;4428296;32;20097;-68
2022/04/13 11:10:58;;;;;;;8.57;3.17;;;20.40;56.50;;;;;;4431684;32;20078;-68
2022/04/13 11:13:30;;;;;;;9.20;2.70;;;20.30;56.20;;;;;;4442940;32;20496;-69
2022/04/13 11:15:56;;;;;;;10.40;2.70;;;20.30;56.30;;;;;;4443523;32;20077;-69
2022/04/13 11:18:22;;;;;;;12.80;2.70;;;20.30;56.30;;;;;;4443459;32;20432;-68
2022/04/13 11:21:08;;;;;;;9.32;3.33;;;20.30;56.20;;;;;;4429587;32;20074;-68
2022/04/13 11:23:48;;;;;;;6.45;2.50;;;20.30;56.40;;;;;;4443933;32;20082;-68
2022/04/13 11:26:14;;;;;;;6.47;2.72;;;20.30;56.20;;;;;;4444362;32;20092;-69
2022/04/13 11:28:41;;;;;;;6.85;2.83;;;20.30;56.10;;;;;;4446983;32;20106;-69
2022/04/13 11:31:07;;;;;;;9.57;2.22;;;20.30;56.20;;;;;;4447167;32;20074;-69
2022/04/13 11:33:49;;;;;;;9.43;2.70;;;20.30;56.20;;;;;;4447044;32;20530;-68
2022/04/13 11:36:15;;;;;;;6.93;2.63;;;20.30;56.20;;;;;;4446318;32;20096;-69
2022/04/13 11:38:53;;;;;;;6.70;3.05;;;20.30;56.20;;;;;;4446572;32;20074;-70
2022/04/13 11:41:20;;;;;;;6.32;2.45;;;20.30;56.10;;;;;;4444993;32;20677;-68
2022/04/13 11:43:47;;;;;;;6.40;2.55;;;20.30;55.90;;;;;;4443607;32;20129;-68
2022/04/13 11:46:33;;;;;;;7.72;2.90;;;20.30;56.70;;;;;;4431528;32;20078;-67
2022/04/13 11:48:58;;;;;;;9.60;2.65;;;20.20;56.70;;;;;;4443321;32;20082;-68
2022/04/13 11:51:32;;;;;;;9.27;3.20;;;20.20;55.70;;;;;;4430129;32;20062;-68
2022/04/13 11:54:12;;;;;;;9.10;2.70;;;20.20;55.80;;;;;;4419953;32;20084;-68
2022/04/13 11:56:48;;;;;;;6.07;2.25;;;20.20;55.80;;;;;;4432927;32;20212;-68
2022/04/13 11:59:37;;;;;;;7.97;2.92;;;20.20;55.80;;;;;;4419568;32;20075;-68
2022/04/13 12:02:08;;;;;;;7.82;2.50;;;20.10;55.80;;;;;;4431940;32;20086;-67
2022/04/13 12:04:34;;;;;;;8.75;2.35;;;20.10;55.90;;;;;;4429061;32;20223;-68
2022/04/13 12:07:01;;;;;;;8.10;2.25;;;20.10;55.80;;;;;;4433932;32;20086;-69
2022/04/13 12:09:28;;;;;;;8.98;2.42;;;20.10;55.90;;;;;;4432758;32;20527;-68
2022/04/13 12:11:55;;;;;;;6.40;2.67;;;20.10;55.90;;;;;;4446302;32;20078;-68
2022/04/13 12:14:32;;;;;;;9.15;2.92;;;20.00;55.80;;;;;;4445910;32;20232;-68
2022/04/13 12:16:59;;;;;;;7.00;2.60;;;20.00;55.80;;;;;;4446624;32;20124;-69
2022/04/13 12:19:41;;;;;;;7.97;2.63;;;20.00;55.90;;;;;;4419569;32;20507;-68
2022/04/13 12:22:19;;;;;;;8.75;2.15;;;20.00;55.90;;;;;;4446644;32;20109;-68
2022/04/13 12:25:05;;;;;;;8.15;2.45;;;20.00;56.00;;;;;;4446560;32;20089;-68
2022/04/13 12:27:31;;;;;;;7.72;2.28;;;19.90;56.00;;;;;;4446398;32;20102;-69
2022/04/13 12:30:17;;;;;;;5.53;2.03;;;19.90;56.00;;;;;;4446814;32;20094;-68
2022/04/13 12:32:47;;;;;;;7.75;2.15;;;19.90;55.90;;;;;;4446525;32;20097;-69
2022/04/13 12:35:15;;;;;;;8.43;2.72;;;19.90;56.00;;;;;;4432374;32;20129;-69
2022/04/13 12:37:55;;;;;;;6.68;2.05;;;19.90;56.20;;;;;;4445037;32;20222;-69
2022/04/13 12:40:28;;;;;;;7.40;2.40;;;19.90;56.40;;;;;;4446435;32;20204;-69
2022/04/13 12:42:54;;;;;;;7.30;2.45;;;19.90;56.40;;;;;;4445897;32;20094;-69
2022/04/13 12:45:30;;;;;;;11.18;2.55;;;19.80;56.40;;;;;;4444740;32;20570;-75
2022/04/13 12:47:56;;;;;;;9.40;2.55;;;19.80;56.40;;;;;;4446533;32;20633;-74
2022/04/13 12:50:21;;;;;;;7.20;2.70;;;19.80;56.50;;;;;;4446368;32;20088;-74
2022/04/13 12:52:57;;;;;;;9.52;3.08;;;19.80;56.60;;;;;;4445893;32;20086;-75
2022/04/13 12:55:23;;;;;;;8.68;2.58;;;19.80;56.60;;;;;;4446584;32;20542;-75